sensor_id;sensor_type;location;lat;lon;timestamp;pressure;altitude;pressure_sealevel;temperature;humidity
6347;BME280;3206;42.666;23.600;2023-05-23T18:22:22;94872.72;;;19.24;100.00
6347;BME280;3206;42.666;23.600;2023-05-23T18:24:48;94872.72;;;19.24;100.00
6347;BME280;3206;42.666;23.600;2023-05-23T18:28:48;94891.66;;;18.70;100.00
6347;BME280;3206;42.666;23.600;2023-05-23T18:31:15;94893.34;;;18.43;100.00
6347;BME280;3206;42.666;23.600;2023-05-23T18:33:42;94884.06;;;18.44;100.00
6347;BME280;3206;42.666;23.600;2023-05-23T18:36:08;94896.41;;;18.48;100.00
6347;BME280;3206;42.666;23.600;2023-05-23T18:38:35;94895.66;;;18.44;100.00
6347;BME280;3206;42.666;23.600;2023-05-23T18:41:02;94897.22;;;18.42;100.00
6347;BME280;3206;42.666;23.600;2023-05-23T18:43:28;94903.81;;;18.34;100.00
6347;BME280;3206;42.666;23.600;2023-05-23T18:45:56;94903.81;;;18.34;100.00
6347;BME280;3206;42.666;23.600;2023-05-23T18:48:23;94908.84;;;18.32;100.00
6347;BME280;3206;42.666;23.600;2023-05-23T18:50:50;94908.84;;;18.32;100.00
6347;BME280;3206;42.666;23.600;2023-05-23T18:53:17;94908.84;;;18.32;100.00
6347;BME280;3206;42.666;23.600;2023-05-23T18:55:44;94914.25;;;18.25;100.00
6347;BME280;3206;42.666;23.600;2023-05-23T18:58:10;94921.22;;;18.26;100.00
6347;BME280;3206;42.666;23.600;2023-05-23T19:00:37;94928.94;;;18.24;100.00
6347;BME280;3206;42.666;23.600;2023-05-23T19:03:05;94928.63;;;17.87;100.00
6347;BME280;3206;42.666;23.600;2023-05-23T19:05:32;94927.53;;;17.53;100.00
6347;BME280;3206;42.666;23.600;2023-05-23T19:07:58;94940.66;;;17.72;100.00
6347;BME280;3206;42.666;23.600;2023-05-23T19:10:25;94939.50;;;17.73;100.00
6347;BME280;3206;42.666;23.600;2023-05-23T19:12:52;94944.53;;;17.71;100.00
6347;BME280;3206;42.666;23.600;2023-05-23T19:15:18;94960.72;;;17.64;100.00
6347;BME280;3206;42.666;23.600;2023-05-23T19:17:45;94964.59;;;17.56;100.00
6347;BME280;3206;42.666;23.600;2023-05-23T19:20:13;94964.59;;;17.56;100.00
6347;BME280;3206;42.666;23.600;2023-05-23T19:22:44;94960.25;;;16.99;100.00
6347;BME280;3206;42.666;23.600;2023-05-23T19:25:11;94966.44;;;17.00;100.00
6347;BME280;3206;42.666;23.600;2023-05-23T19:27:38;94973.78;;;17.13;100.00
6347;BME280;3206;42.666;23.600;2023-05-23T19:30:06;94981.88;;;17.20;100.00
6347;BME280;3206;42.666;23.600;2023-05-23T19:32:32;94981.88;;;17.20;100.00
6347;BME280;3206;42.666;23.600;2023-05-23T19:34:59;94981.88;;;17.20;100.00
6347;BME280;3206;42.666;23.600;2023-05-23T19:37:28;65057.09;;;-141.88;100.00
6347;BME280;3206;42.666;23.600;2023-05-23T19:39:58;65057.09;;;-141.88;100.00
6347;BME280;3206;42.666;23.600;2023-05-23T19:42:26;65057.09;;;-141.88;100.00
6347;BME280;3206;42.666;23.600;2023-05-23T19:44:53;65057.09;;;-141.88;100.00
6347;BME280;3206;42.666;23.600;2023-05-23T19:47:34;65057.09;;;-141.88;100.00
6347;BME280;3206;42.666;23.600;2023-05-23T19:50:58;65057.09;;;-141.88;100.00
6347;BME280;3206;42.666;23.600;2023-05-23T19:54:20;65057.09;;;-141.88;100.00
6347;BME280;3206;42.666;23.600;2023-05-23T19:57:25;65057.09;;;-141.88;100.00
6347;BME280;3206;42.666;23.600;2023-05-23T20:00:50;65057.09;;;-141.88;100.00
6347;BME280;3206;42.666;23.600;2023-05-23T20:04:15;65057.09;;;-141.88;100.00
6347;BME280;3206;42.666;23.600;2023-05-23T20:07:40;65057.09;;;-141.88;100.00
6347;BME280;3206;42.666;23.600;2023-05-23T20:11:02;65057.09;;;-141.88;100.00
6347;BME280;3206;42.666;23.600;2023-05-23T20:13:37;94981.88;;;17.20;100.00
6347;BME280;3206;42.666;23.600;2023-05-23T20:16:21;65057.09;;;-141.88;100.00
6347;BME280;3206;42.666;23.600;2023-05-23T20:19:06;65057.09;;;-141.88;100.00
6347;BME280;3206;42.666;23.600;2023-05-23T20:22:04;65057.09;;;-141.88;100.00
6347;BME280;3206;42.666;23.600;2023-05-23T20:25:12;65057.09;;;-141.88;100.00
6347;BME280;3206;42.666;23.600;2023-05-23T20:28:05;65057.09;;;-141.88;100.00
6347;BME280;3206;42.666;23.600;2023-05-23T20:31:31;65057.09;;;-141.88;100.00
6347;BME280;3206;42.666;23.600;2023-05-23T20:34:44;65057.09;;;-141.88;100.00
6347;BME280;3206;42.666;23.600;2023-05-23T20:38:09;65057.09;;;-141.88;100.00
6347;BME280;3206;42.666;23.600;2023-05-23T20:41:36;65057.09;;;-141.88;100.00
6347;BME280;3206;42.666;23.600;2023-05-23T20:44:27;65057.09;;;-141.88;100.00
6347;BME280;3206;42.666;23.600;2023-05-23T20:47:30;65057.09;;;-141.88;100.00
6347;BME280;3206;42.666;23.600;2023-05-23T20:50:45;65057.09;;;-141.88;100.00
6347;BME280;3206;42.666;23.600;2023-05-23T20:53:55;65057.09;;;-141.88;100.00
6347;BME280;3206;42.666;23.600;2023-05-23T20:56:23;65057.09;;;-141.88;100.00
6347;BME280;3206;42.666;23.600;2023-05-23T20:59:16;65057.09;;;-141.88;100.00
6347;BME280;3206;42.666;23.600;2023-05-23T21:01:48;65057.09;;;-141.88;100.00
6347;BME280;3206;42.666;23.600;2023-05-23T21:04:15;65057.09;;;-141.88;100.00
6347;BME280;3206;42.666;23.600;2023-05-23T21:06:52;65057.09;;;-141.88;100.00
6347;BME280;3206;42.666;23.600;2023-05-23T21:10:17;65057.09;;;-141.88;100.00
6347;BME280;3206;42.666;23.600;2023-05-23T21:13:43;65057.09;;;-141.88;100.00
6347;BME280;3206;42.666;23.600;2023-05-23T21:16:13;65057.09;;;-141.88;100.00
6347;BME280;3206;42.666;23.600;2023-05-23T21:18:43;65057.09;;;-141.88;100.00
6347;BME280;3206;42.666;23.600;2023-05-23T21:21:11;65057.09;;;-141.88;100.00
6347;BME280;3206;42.666;23.600;2023-05-23T21:23:38;65057.09;;;-141.88;100.00
6347;BME280;3206;42.666;23.600;2023-05-23T21:26:05;65057.09;;;-141.88;100.00
6347;BME280;3206;42.666;23.600;2023-05-23T21:29:29;65057.09;;;-141.88;100.00
6347;BME280;3206;42.666;23.600;2023-05-23T21:32:26;65057.09;;;-141.88;100.00
6347;BME280;3206;42.666;23.600;2023-05-23T21:35:51;65057.09;;;-141.88;100.00
6347;BME280;3206;42.666;23.600;2023-05-23T21:38:35;65057.09;;;-141.88;100.00
6347;BME280;3206;42.666;23.600;2023-05-23T21:41:13;65057.09;;;-141.88;100.00
6347;BME280;3206;42.666;23.600;2023-05-23T21:43:48;65057.09;;;-141.88;100.00
6347;BME280;3206;42.666;23.600;2023-05-23T21:46:44;65057.09;;;-141.88;100.00
6347;BME280;3206;42.666;23.600;2023-05-23T21:49:40;65057.09;;;-141.88;100.00
6347;BME280;3206;42.666;23.600;2023-05-23T21:53:05;65057.09;;;-141.88;100.00
6347;BME280;3206;42.666;23.600;2023-05-23T21:56:29;65057.09;;;-141.88;100.00
6347;BME280;3206;42.666;23.600;2023-05-23T21:59:42;65057.09;;;-141.88;100.00
6347;BME280;3206;42.666;23.600;2023-05-23T22:03:07;65057.09;;;-141.88;100.00
6347;BME280;3206;42.666;23.600;2023-05-23T22:06:23;65057.09;;;-141.88;100.00
6347;BME280;3206;42.666;23.600;2023-05-23T22:09:48;65057.09;;;-141.88;100.00
6347;BME280;3206;42.666;23.600;2023-05-23T22:12:34;65057.09;;;-141.88;100.00
6347;BME280;3206;42.666;23.600;2023-05-23T22:15:59;65057.09;;;-141.88;100.00
6347;BME280;3206;42.666;23.600;2023-05-23T22:19:13;65057.09;;;-141.88;100.00
6347;BME280;3206;42.666;23.600;2023-05-23T22:22:37;65057.09;;;-141.88;100.00
6347;BME280;3206;42.666;23.600;2023-05-23T22:25:44;65057.09;;;-141.88;100.00
6347;BME280;3206;42.666;23.600;2023-05-23T22:29:06;65057.09;;;-141.88;100.00
6347;BME280;3206;42.666;23.600;2023-05-23T22:32:33;65057.09;;;-141.88;100.00
6347;BME280;3206;42.666;23.600;2023-05-23T22:35:12;65057.09;;;-141.88;100.00
6347;BME280;3206;42.666;23.600;2023-05-23T22:37:39;65057.09;;;-141.88;100.00
6347;BME280;3206;42.666;23.600;2023-05-23T22:40:06;65057.09;;;-141.88;100.00
6347;BME280;3206;42.666;23.600;2023-05-23T22:43:26;65057.09;;;-141.88;100.00
6347;BME280;3206;42.666;23.600;2023-05-23T22:45:56;65057.09;;;-141.88;100.00
6347;BME280;3206;42.666;23.600;2023-05-23T22:48:54;65057.09;;;-141.88;100.00
6347;BME280;3206;42.666;23.600;2023-05-23T22:51:23;65057.09;;;-141.88;100.00
6347;BME280;3206;42.666;23.600;2023-05-23T22:54:48;65057.09;;;-141.88;100.00
6347;BME280;3206;42.666;23.600;2023-05-23T22:58:13;65057.09;;;-141.88;100.00
6347;BME280;3206;42.666;23.600;2023-05-23T23:01:38;65057.09;;;-141.88;100.00
6347;BME280;3206;42.666;23.600;2023-05-23T23:05:00;65057.09;;;-141.88;100.00
6347;BME280;3206;42.666;23.600;2023-05-23T23:07:33;65057.09;;;-141.88;100.00
6347;BME280;3206;42.666;23.600;2023-05-23T23:10:58;65057.09;;;-141.88;100.00
6347;BME280;3206;42.666;23.600;2023-05-23T23:14:05;65057.09;;;-141.88;100.00
6347;BME280;3206;42.666;23.600;2023-05-23T23:16:46;65057.09;;;-141.88;100.00
6347;BME280;3206;42.666;23.600;2023-05-23T23:20:16;65057.09;;;-141.88;100.00
6347;BME280;3206;42.666;23.600;2023-05-23T23:23:42;65057.09;;;-141.88;100.00
6347;BME280;3206;42.666;23.600;2023-05-23T23:27:07;65057.09;;;-141.88;100.00
6347;BME280;3206;42.666;23.600;2023-05-23T23:30:32;65057.09;;;-141.88;100.00
6347;BME280;3206;42.666;23.600;2023-05-23T23:33:23;65057.09;;;-141.88;100.00
6347;BME280;3206;42.666;23.600;2023-05-23T23:36:06;65057.09;;;-141.88;100.00
6347;BME280;3206;42.666;23.600;2023-05-23T23:38:38;65057.09;;;-141.88;100.00
6347;BME280;3206;42.666;23.600;2023-05-23T23:41:50;65057.09;;;-141.88;100.00
6347;BME280;3206;42.666;23.600;2023-05-23T23:45:15;65057.09;;;-141.88;100.00
6347;BME280;3206;42.666;23.600;2023-05-23T23:48:41;65057.09;;;-141.88;100.00
6347;BME280;3206;42.666;23.600;2023-05-23T23:52:07;65057.09;;;-141.88;100.00
6347;BME280;3206;42.666;23.600;2023-05-23T23:55:23;65057.09;;;-141.88;100.00
6347;BME280;3206;42.666;23.600;2023-05-23T23:58:47;65057.09;;;-141.88;100.00
